mai
10

MOTOCROSS MONDIAL – CHAMPIONNAT DU MONDE FÉMININ : PAPENMEIER CLAQUE SA PREMIÈRE PÔLE..!

YouthStreamBulgarianMXBanner08.jpg

PapenmeierBulgarie08.jpg

MX2 – Time Practice Classification

Pos Nr Rider Nat. Fed. Bike Bestlaptime in lap Diff. First Diff. Prev. Tot. Laps Speed

1 4 Papenmeier, Larissa GER DMSB Suzuki 2:01.782 10 0:00.000 0:00.000 10 0

2 103 Franke, Maria GER DMSB Kawasaki 2:02.376 7 0:00.594 0:00.594 7 0

3 114 Lancelot, Livia FRA FFM Kawasaki 2:02.402 7 0:00.620 0:00.026 10 0

4 67 Fiolek, Ashley USA AMA Honda 2:02.896 9 0:01.114 0:00.494 13 0

5 1 Prumm, Katherine NZL MNZ Yamaha 2:03.876 5 0:02.094 0:00.980 12 0

6 16 Mann, Elin SWE SVEMO KTM 2:07.111 7 0:05.329 0:03.235 8 0

7 99 Haupt, Alexandra GER DMSB Kawasaki 2:08.677 9 0:06.895 0:01.566 11 0

8 89 De Winter, Elien BEL FMB KTM 2:08.933 7 0:07.151 0:00.256 12 0

9 7 Veenstra, Marianne NED KNMV Suzuki 2:09.003 7 0:07.221 0:00.070 10 0

10 24 Borchers, Anne GER DMSB Suzuki 2:09.869 5 0:08.087 0:00.866 10 0

11 8 De Mol, Marielle NED KNMV Yamaha 2:10.031 5 0:08.249 0:00.162 9 0

12 37 Scott, Nikki NZL MNZ Kawasaki 2:10.195 5 0:08.413 0:00.164 10 0

13 6 Adriansson, Sandra SWE SVEMO Suzuki 2:11.685 4 0:09.903 0:01.490 7 0

14 101 Seidenberg, Jenny GER DMSB KTM 2:12.941 6 0:11.159 0:01.256 8 0

15 25 van Wordragen, Nicky NED KNMV KTM 2:13.021 8 0:11.239 0:00.080 10 0

16 100 Fransoo, Natascha GER DMSB TM 2:13.466 5 0:11.684 0:00.445 10 0

17 64 Sjöberg, Sofia SWE SVEMO Honda 2:14.316 5 0:12.534 0:00.850 9 0

18 5 Romlin, Marie SWE SML Honda 2:14.447 3 0:12.665 0:00.131 3 0

19 90 Wagemans, Brenda BEL FMB KTM 2:14.874 9 0:13.092 0:00.427 10 0

20 55 Irmgartz, Kim GER OeAMTC Suzuki 2:15.079 10 0:13.297 0:00.205 10 0

21 117 Paull, Sophia GBR ACU Honda 2:15.889 8 0:14.107 0:00.810 9 0

22 21 Partida, Aurelie FRA FFM Yamaha 2:18.907 8 0:17.125 0:03.018 11 0

23 46 van der Wekken, Britt NED KNMV Honda 2:19.219 7 0:17.437 0:00.312 9 0

24 92 Adriaanse-Goetheer, Karin NED MUL Yamaha 2:19.640 5 0:17.858 0:00.421 7 0

25 86 Verkade, Shirley NED KNMV KTM 2:20.041 2 0:18.259 0:00.401 8 0

26 70 Padrini, Stefania ITA FMI Kawasaki 2:20.914 4 0:19.132 0:00.873 7 0

27 12 Lewis, Megan GBR ACU Yamaha 2:22.244 5 0:20.462 0:01.330 7 0

28 27 Johansson, Sofia SWE SVEMO Suzuki 2:22.738 9 0:20.956 0:00.494 11 0

29 36 Benediktova, Mariya RUS MFR Yamaha 2:24.159 9 0:22.377 0:01.421 9 0

30 22 Sbrana, Alessandra ITA FMI Yamaha 2:24.403 8 0:22.621 0:00.244 9 0

31 26 De Groot, Desiree NED KNMV Yamaha 2:26.549 8 0:24.767 0:02.146 10 0

32 120 Piladze, Inga LAT LAMSF Kawasaki 2:26.774 4 0:24.992 0:00.225 7 0

33 42 Hayward, Tess GBR ACU Yamaha 2:26.952 9 0:25.170 0:00.178 9 0

34 40 Gurieva, Ekaterina RUS MFR Honda 2:27.253 6 0:25.471 0:00.301 8 0

35 43 Martinova, Bilyana BUL BMF Honda 2:38.546 4 0:36.764 0:11.293 7 0

36 44 Stanoeva, Iva BUL BMF Honda 2:42.426 6 0:40.644 0:03.880 7 0

37 35 De Palleja, Nelia ESP RFME KTM 2:42.460 2 0:40.678 0:00.034 7 0

YouthStreamNewBannerDownMX08.jpg

A voir aussi :

Le commentaires sont fermés.